sensor_id;sensor_type;location;lat;lon;timestamp;pressure;altitude;pressure_sealevel;temperature;humidity
85473;BME280;75874;41.386;22.136;2024-02-15T00:00:15;96234.19;;;5.50;60.44
85473;BME280;75874;41.386;22.136;2024-02-15T00:03:10;96252.88;;;5.55;59.87
85473;BME280;75874;41.386;22.136;2024-02-15T00:05:39;96233.56;;;5.48;60.13
85473;BME280;75874;41.386;22.136;2024-02-15T00:08:05;96224.63;;;5.29;61.13
85473;BME280;75874;41.386;22.136;2024-02-15T00:10:32;96252.06;;;5.48;61.23
85473;BME280;75874;41.386;22.136;2024-02-15T00:12:58;96249.44;;;5.54;60.04
85473;BME280;75874;41.386;22.136;2024-02-15T00:15:23;96269.97;;;5.52;60.12
85473;BME280;75874;41.386;22.136;2024-02-15T00:17:49;96261.41;;;5.50;60.98
85473;BME280;75874;41.386;22.136;2024-02-15T00:20:15;96271.81;;;5.39;60.65
85473;BME280;75874;41.386;22.136;2024-02-15T00:22:43;96261.84;;;5.47;60.16
85473;BME280;75874;41.386;22.136;2024-02-15T00:25:09;96272.63;;;5.46;59.96
85473;BME280;75874;41.386;22.136;2024-02-15T00:27:36;96266.53;;;5.32;61.14
85473;BME280;75874;41.386;22.136;2024-02-15T00:30:03;96251.66;;;5.38;60.50
85473;BME280;75874;41.386;22.136;2024-02-15T00:33:05;96255.13;;;5.38;59.78
85473;BME280;75874;41.386;22.136;2024-02-15T00:35:33;96227.06;;;5.24;60.71
85473;BME280;75874;41.386;22.136;2024-02-15T00:37:58;96251.25;;;5.34;59.72
85473;BME280;75874;41.386;22.136;2024-02-15T00:40:24;96250.44;;;5.34;59.82
85473;BME280;75874;41.386;22.136;2024-02-15T00:42:49;96232.16;;;5.26;60.31
85473;BME280;75874;41.386;22.136;2024-02-15T00:45:15;96255.53;;;5.29;59.63
85473;BME280;75874;41.386;22.136;2024-02-15T00:47:41;96235.00;;;5.18;60.35
85473;BME280;75874;41.386;22.136;2024-02-15T00:50:08;96247.59;;;5.16;60.68
85473;BME280;75874;41.386;22.136;2024-02-15T00:52:35;96263.25;;;5.24;60.75
85473;BME280;75874;41.386;22.136;2024-02-15T00:58:42;96255.94;;;5.19;60.30
85473;BME280;75874;41.386;22.136;2024-02-15T01:01:07;96261.63;;;5.16;60.86
85473;BME280;75874;41.386;22.136;2024-02-15T01:03:34;96263.22;;;5.11;60.07
85473;BME280;75874;41.386;22.136;2024-02-15T01:06:00;96255.31;;;5.17;59.99
85473;BME280;75874;41.386;22.136;2024-02-15T01:08:26;96255.31;;;5.17;60.04
85473;BME280;75874;41.386;22.136;2024-02-15T01:10:52;96250.84;;;5.11;59.83
85473;BME280;75874;41.386;22.136;2024-02-15T01:13:18;96251.47;;;5.13;60.28
85473;BME280;75874;41.386;22.136;2024-02-15T01:15:44;96254.09;;;5.20;59.94
85473;BME280;75874;41.386;22.136;2024-02-15T01:18:11;96257.16;;;5.17;59.45
85473;BME280;75874;41.386;22.136;2024-02-15T01:20:37;96222.75;;;4.91;59.60
85473;BME280;75874;41.386;22.136;2024-02-15T01:23:03;96261.81;;;5.08;60.32
85473;BME280;75874;41.386;22.136;2024-02-15T01:25:30;96266.50;;;5.13;59.48
85473;BME280;75874;41.386;22.136;2024-02-15T01:27:56;96251.66;;;5.05;58.71
85473;BME280;75874;41.386;22.136;2024-02-15T01:30:22;96276.06;;;5.07;59.12
85473;BME280;75874;41.386;22.136;2024-02-15T01:32:47;96256.91;;;4.92;59.82
85473;BME280;75874;41.386;22.136;2024-02-15T01:35:13;96252.03;;;4.96;59.25
85473;BME280;75874;41.386;22.136;2024-02-15T01:37:39;96248.78;;;4.94;58.95
85473;BME280;75874;41.386;22.136;2024-02-15T01:40:07;96266.06;;;5.09;59.22
85473;BME280;75874;41.386;22.136;2024-02-15T01:42:33;96259.16;;;5.08;57.90
85473;BME280;75874;41.386;22.136;2024-02-15T01:44:59;96267.91;;;5.02;59.06
85473;BME280;75874;41.386;22.136;2024-02-15T01:47:25;96271.97;;;5.05;59.05
85473;BME280;75874;41.386;22.136;2024-02-15T01:49:52;96252.84;;;4.96;58.10
85473;BME280;75874;41.386;22.136;2024-02-15T01:52:18;96292.91;;;5.06;58.08
85473;BME280;75874;41.386;22.136;2024-02-15T01:54:45;96276.44;;;5.11;57.68
85473;BME280;75874;41.386;22.136;2024-02-15T01:57:11;96271.97;;;5.05;58.11
85473;BME280;75874;41.386;22.136;2024-02-15T01:59:37;96270.94;;;5.12;57.55
85473;BME280;75874;41.386;22.136;2024-02-15T02:02:04;96271.38;;;5.16;57.93
85473;BME280;75874;41.386;22.136;2024-02-15T02:04:33;96225.19;;;4.86;57.68
85473;BME280;75874;41.386;22.136;2024-02-15T02:06:59;96217.69;;;4.96;58.78
85473;BME280;75874;41.386;22.136;2024-02-15T02:09:25;96259.78;;;5.10;57.77
85473;BME280;75874;41.386;22.136;2024-02-15T02:11:51;96268.31;;;5.12;58.03
85473;BME280;75874;41.386;22.136;2024-02-15T02:14:17;96272.00;;;5.18;58.12
85473;BME280;75874;41.386;22.136;2024-02-15T02:16:45;96271.59;;;5.21;58.39
85473;BME280;75874;41.386;22.136;2024-02-15T02:19:11;96283.38;;;5.25;57.64
85473;BME280;75874;41.386;22.136;2024-02-15T02:21:38;96255.69;;;5.08;58.32
85473;BME280;75874;41.386;22.136;2024-02-15T02:24:15;96267.50;;;5.12;58.57
85473;BME280;75874;41.386;22.136;2024-02-15T02:26:46;96268.34;;;5.25;57.51
85473;BME280;75874;41.386;22.136;2024-02-15T02:29:14;96273.63;;;5.25;58.06
85473;BME280;75874;41.386;22.136;2024-02-15T02:31:39;96263.47;;;5.29;57.49
85473;BME280;75874;41.386;22.136;2024-02-15T02:37:26;96266.94;;;5.29;58.51
85473;BME280;75874;41.386;22.136;2024-02-15T02:39:52;96271.78;;;5.26;57.55
85473;BME280;75874;41.386;22.136;2024-02-15T02:42:18;96266.09;;;5.22;57.50
85473;BME280;75874;41.386;22.136;2024-02-15T02:44:44;96272.41;;;5.34;56.96
85473;BME280;75874;41.386;22.136;2024-02-15T02:47:10;96253.09;;;5.34;57.12
85473;BME280;75874;41.386;22.136;2024-02-15T02:49:36;96279.75;;;5.39;57.63
85473;BME280;75874;41.386;22.136;2024-02-15T02:52:02;96262.03;;;5.33;57.48
85473;BME280;75874;41.386;22.136;2024-02-15T02:54:28;96233.16;;;5.25;57.01
85473;BME280;75874;41.386;22.136;2024-02-15T02:56:54;96277.28;;;5.50;56.91
85473;BME280;75874;41.386;22.136;2024-02-15T02:59:20;96284.44;;;5.50;57.32
85473;BME280;75874;41.386;22.136;2024-02-15T03:01:47;96225.22;;;5.25;56.72
85473;BME280;75874;41.386;22.136;2024-02-15T03:07:21;96284.59;;;5.55;56.84
85473;BME280;75874;41.386;22.136;2024-02-15T03:09:49;96293.16;;;5.50;56.06
85473;BME280;75874;41.386;22.136;2024-02-15T03:12:14;96284.00;;;5.40;56.90
85473;BME280;75874;41.386;22.136;2024-02-15T03:14:43;96281.16;;;5.48;56.54
85473;BME280;75874;41.386;22.136;2024-02-15T03:17:08;96293.38;;;5.55;56.42
85473;BME280;75874;41.386;22.136;2024-02-15T03:19:34;96279.94;;;5.44;56.93
85473;BME280;75874;41.386;22.136;2024-02-15T03:22:00;96288.06;;;5.55;56.58
85473;BME280;75874;41.386;22.136;2024-02-15T03:24:54;96296.84;;;5.56;56.37
85473;BME280;75874;41.386;22.136;2024-02-15T03:27:20;96295.38;;;5.53;56.30
85473;BME280;75874;41.386;22.136;2024-02-15T03:29:49;96276.88;;;5.53;56.63
85473;BME280;75874;41.386;22.136;2024-02-15T03:32:15;96298.25;;;5.52;56.18
85473;BME280;75874;41.386;22.136;2024-02-15T03:34:41;96260.41;;;5.38;56.84
85473;BME280;75874;41.386;22.136;2024-02-15T03:37:07;96286.44;;;5.48;57.09
85473;BME280;75874;41.386;22.136;2024-02-15T03:39:34;96283.38;;;5.38;56.89
85473;BME280;75874;41.386;22.136;2024-02-15T03:42:00;96270.97;;;5.32;56.28
85473;BME280;75874;41.386;22.136;2024-02-15T03:44:26;96283.41;;;5.44;57.07
85473;BME280;75874;41.386;22.136;2024-02-15T03:47:15;96300.69;;;5.40;56.37
85473;BME280;75874;41.386;22.136;2024-02-15T03:49:41;96295.59;;;5.26;56.79
85473;BME280;75874;41.386;22.136;2024-02-15T03:52:08;96275.44;;;5.12;57.23
85473;BME280;75874;41.386;22.136;2024-02-15T03:54:36;96230.06;;;4.89;58.12
85473;BME280;75874;41.386;22.136;2024-02-15T03:57:02;96302.66;;;5.12;58.16
85473;BME280;75874;41.386;22.136;2024-02-15T03:59:29;96291.47;;;5.04;57.26
85473;BME280;75874;41.386;22.136;2024-02-15T04:01:54;96293.28;;;4.90;57.66
85473;BME280;75874;41.386;22.136;2024-02-15T04:04:21;96276.81;;;4.82;58.35
85473;BME280;75874;41.386;22.136;2024-02-15T04:06:50;96318.66;;;4.85;57.93
85473;BME280;75874;41.386;22.136;2024-02-15T04:09:17;96294.69;;;4.86;58.79
85473;BME280;75874;41.386;22.136;2024-02-15T04:11:47;96308.09;;;4.85;57.93
85473;BME280;75874;41.386;22.136;2024-02-15T04:14:16;96301.19;;;4.84;59.34
85473;BME280;75874;41.386;22.136;2024-02-15T04:16:44;96292.66;;;4.82;58.60
85473;BME280;75874;41.386;22.136;2024-02-15T04:19:10;96295.69;;;4.78;59.07
85473;BME280;75874;41.386;22.136;2024-02-15T04:21:36;96293.00;;;4.65;58.47
85473;BME280;75874;41.386;22.136;2024-02-15T04:24:02;96280.44;;;4.74;59.87
85473;BME280;75874;41.386;22.136;2024-02-15T04:26:27;96292.00;;;4.73;59.29
85473;BME280;75874;41.386;22.136;2024-02-15T04:29:22;96300.13;;;4.71;58.71
85473;BME280;75874;41.386;22.136;2024-02-15T04:31:48;96287.94;;;4.70;58.98
85473;BME280;75874;41.386;22.136;2024-02-15T04:34:16;96294.41;;;4.61;59.04
85473;BME280;75874;41.386;22.136;2024-02-15T04:36:46;96296.47;;;4.66;58.27
85473;BME280;75874;41.386;22.136;2024-02-15T04:39:15;96313.31;;;4.71;57.58
85473;BME280;75874;41.386;22.136;2024-02-15T04:41:53;96297.09;;;4.68;57.41
85473;BME280;75874;41.386;22.136;2024-02-15T04:44:20;96323.25;;;4.63;58.13
85473;BME280;75874;41.386;22.136;2024-02-15T04:46:47;96323.84;;;4.65;58.30
85473;BME280;75874;41.386;22.136;2024-02-15T04:49:13;96313.09;;;4.60;57.97
85473;BME280;75874;41.386;22.136;2024-02-15T04:51:39;96308.22;;;4.57;58.96
85473;BME280;75874;41.386;22.136;2024-02-15T04:57:43;96309.63;;;4.59;58.06
85473;BME280;75874;41.386;22.136;2024-02-15T05:00:09;96315.50;;;4.55;57.87
85473;BME280;75874;41.386;22.136;2024-02-15T05:02:39;96305.44;;;4.31;58.40
85473;BME280;75874;41.386;22.136;2024-02-15T05:05:09;96302.47;;;4.47;58.06
85473;BME280;75874;41.386;22.136;2024-02-15T05:07:35;96302.44;;;4.40;58.98
85473;BME280;75874;41.386;22.136;2024-02-15T05:10:05;96324.03;;;4.50;58.48
85473;BME280;75874;41.386;22.136;2024-02-15T05:12:32;96307.75;;;4.47;58.07
85473;BME280;75874;41.386;22.136;2024-02-15T05:15:01;96334.75;;;4.42;58.97
85473;BME280;75874;41.386;22.136;2024-02-15T05:17:27;96294.25;;;4.22;58.79
85473;BME280;75874;41.386;22.136;2024-02-15T05:19:57;96334.34;;;4.45;58.36
85473;BME280;75874;41.386;22.136;2024-02-15T05:22:25;96340.66;;;4.44;59.09
85473;BME280;75874;41.386;22.136;2024-02-15T05:24:55;96335.38;;;4.44;58.65
85473;BME280;75874;41.386;22.136;2024-02-15T05:27:21;96349.16;;;4.46;58.46
85473;BME280;75874;41.386;22.136;2024-02-15T05:29:46;96339.03;;;4.50;58.49
85473;BME280;75874;41.386;22.136;2024-02-15T05:32:12;96326.03;;;4.48;58.36
85473;BME280;75874;41.386;22.136;2024-02-15T05:34:39;96342.06;;;4.47;58.61
85473;BME280;75874;41.386;22.136;2024-02-15T05:37:05;96353.09;;;4.57;58.59
85473;BME280;75874;41.386;22.136;2024-02-15T05:39:32;96352.00;;;4.45;58.36
85473;BME280;75874;41.386;22.136;2024-02-15T05:41:57;96340.03;;;4.42;58.90
85473;BME280;75874;41.386;22.136;2024-02-15T05:44:26;96365.72;;;4.61;58.79
85473;BME280;75874;41.386;22.136;2024-02-15T05:46:52;96341.72;;;4.56;57.99
85473;BME280;75874;41.386;22.136;2024-02-15T05:49:17;96363.66;;;4.63;57.42
85473;BME280;75874;41.386;22.136;2024-02-15T05:51:43;96381.19;;;4.71;57.45
85473;BME280;75874;41.386;22.136;2024-02-15T05:54:10;96377.13;;;4.75;58.19
85473;BME280;75874;41.386;22.136;2024-02-15T05:56:36;96365.72;;;4.61;58.16
85473;BME280;75874;41.386;22.136;2024-02-15T05:59:01;96388.13;;;4.78;58.00
85473;BME280;75874;41.386;22.136;2024-02-15T06:01:38;96392.41;;;4.79;57.41
85473;BME280;75874;41.386;22.136;2024-02-15T06:04:04;96350.66;;;4.55;58.12
85473;BME280;75874;41.386;22.136;2024-02-15T06:06:34;96396.28;;;4.84;56.84
85473;BME280;75874;41.386;22.136;2024-02-15T06:09:00;96392.63;;;4.85;57.32
85473;BME280;75874;41.386;22.136;2024-02-15T06:11:27;96405.00;;;4.84;57.04
85473;BME280;75874;41.386;22.136;2024-02-15T06:13:52;96400.97;;;4.88;56.98
85473;BME280;75874;41.386;22.136;2024-02-15T06:16:18;96403.66;;;5.01;56.99
85473;BME280;75874;41.386;22.136;2024-02-15T06:18:43;96397.34;;;4.96;56.39
85473;BME280;75874;41.386;22.136;2024-02-15T06:21:09;96434.34;;;4.96;56.79
85473;BME280;75874;41.386;22.136;2024-02-15T06:23:35;96422.56;;;5.05;56.27
85473;BME280;75874;41.386;22.136;2024-02-15T06:26:01;96406.78;;;5.18;55.49
85473;BME280;75874;41.386;22.136;2024-02-15T06:28:28;96383.16;;;5.10;55.85
85473;BME280;75874;41.386;22.136;2024-02-15T06:31:13;96407.19;;;5.15;56.92
85473;BME280;75874;41.386;22.136;2024-02-15T06:33:58;96415.97;;;5.28;55.55
85473;BME280;75874;41.386;22.136;2024-02-15T06:37:08;96398.91;;;5.31;56.39
85473;BME280;75874;41.386;22.136;2024-02-15T06:39:52;96402.53;;;5.30;55.85
85473;BME280;75874;41.386;22.136;2024-02-15T06:42:18;96395.44;;;5.37;56.93
85473;BME280;75874;41.386;22.136;2024-02-15T06:44:46;96415.59;;;5.44;56.08
85473;BME280;75874;41.386;22.136;2024-02-15T06:47:12;96392.84;;;5.43;55.66
85473;BME280;75874;41.386;22.136;2024-02-15T06:49:39;96402.22;;;5.59;55.81
85473;BME280;75874;41.386;22.136;2024-02-15T06:52:08;96387.94;;;5.40;55.51
85473;BME280;75874;41.386;22.136;2024-02-15T06:54:43;96400.16;;;5.61;55.11
85473;BME280;75874;41.386;22.136;2024-02-15T06:57:11;96406.06;;;5.56;55.33
85473;BME280;75874;41.386;22.136;2024-02-15T06:59:36;96398.16;;;5.69;55.23
85473;BME280;75874;41.386;22.136;2024-02-15T07:02:04;96398.38;;;5.81;55.06
85473;BME280;75874;41.386;22.136;2024-02-15T07:04:33;96398.63;;;5.86;54.27
85473;BME280;75874;41.386;22.136;2024-02-15T07:06:59;96390.06;;;5.84;54.70
85473;BME280;75874;41.386;22.136;2024-02-15T07:09:27;96383.50;;;5.73;54.56
85473;BME280;75874;41.386;22.136;2024-02-15T07:11:53;96388.41;;;5.70;54.97
85473;BME280;75874;41.386;22.136;2024-02-15T07:14:19;96396.97;;;5.85;54.12
85473;BME280;75874;41.386;22.136;2024-02-15T07:16:45;96378.03;;;5.88;54.59
85473;BME280;75874;41.386;22.136;2024-02-15T07:19:12;96370.53;;;5.91;54.33
85473;BME280;75874;41.386;22.136;2024-02-15T07:21:38;96352.78;;;5.72;53.96
85473;BME280;75874;41.386;22.136;2024-02-15T07:24:04;96379.66;;;5.95;54.02
85473;BME280;75874;41.386;22.136;2024-02-15T07:26:30;96390.03;;;5.97;54.73
85473;BME280;75874;41.386;22.136;2024-02-15T07:28:56;96410.03;;;6.06;54.09
85473;BME280;75874;41.386;22.136;2024-02-15T07:31:23;96385.59;;;6.04;53.50
85473;BME280;75874;41.386;22.136;2024-02-15T07:33:52;96372.13;;;6.18;54.67
85473;BME280;75874;41.386;22.136;2024-02-15T07:36:22;96391.47;;;6.25;54.04
85473;BME280;75874;41.386;22.136;2024-02-15T07:38:51;96390.69;;;6.18;53.71
85473;BME280;75874;41.386;22.136;2024-02-15T07:44:53;96386.38;;;6.37;54.27
85473;BME280;75874;41.386;22.136;2024-02-15T07:47:18;96353.78;;;6.37;53.89
85473;BME280;75874;41.386;22.136;2024-02-15T07:49:46;96405.88;;;6.56;53.22
85473;BME280;75874;41.386;22.136;2024-02-15T07:52:12;96383.28;;;6.53;53.26
85473;BME280;75874;41.386;22.136;2024-02-15T07:54:39;96363.47;;;6.69;53.74
85473;BME280;75874;41.386;22.136;2024-02-15T07:57:04;96362.88;;;6.60;53.13
85473;BME280;75874;41.386;22.136;2024-02-15T07:59:30;96363.50;;;6.62;53.16
85473;BME280;75874;41.386;22.136;2024-02-15T08:01:56;96376.91;;;6.74;53.17
85473;BME280;75874;41.386;22.136;2024-02-15T08:04:23;96382.66;;;6.64;53.58
85473;BME280;75874;41.386;22.136;2024-02-15T08:06:54;96378.66;;;6.93;53.19
85473;BME280;75874;41.386;22.136;2024-02-15T08:09:19;96382.13;;;6.93;52.47
85473;BME280;75874;41.386;22.136;2024-02-15T08:11:48;96386.94;;;7.22;53.56
85473;BME280;75874;41.386;22.136;2024-02-15T08:14:14;96386.97;;;7.09;52.35
85473;BME280;75874;41.386;22.136;2024-02-15T08:16:40;96382.25;;;7.18;52.51
85473;BME280;75874;41.386;22.136;2024-02-15T08:19:07;96356.66;;;6.99;52.14
85473;BME280;75874;41.386;22.136;2024-02-15T08:21:34;96387.38;;;7.13;52.62
85473;BME280;75874;41.386;22.136;2024-02-15T08:24:02;96349.25;;;7.07;51.94
85473;BME280;75874;41.386;22.136;2024-02-15T08:26:33;96370.63;;;7.12;51.60
85473;BME280;75874;41.386;22.136;2024-02-15T08:29:01;96368.94;;;7.24;51.41
85473;BME280;75874;41.386;22.136;2024-02-15T08:31:28;96383.28;;;7.48;51.81
85473;BME280;75874;41.386;22.136;2024-02-15T08:33:56;96384.44;;;7.65;50.46
85473;BME280;75874;41.386;22.136;2024-02-15T08:36:22;96316.28;;;7.28;50.15
85473;BME280;75874;41.386;22.136;2024-02-15T08:38:48;96370.59;;;7.87;51.07
85473;BME280;75874;41.386;22.136;2024-02-15T08:41:15;96379.97;;;7.90;51.28
85473;BME280;75874;41.386;22.136;2024-02-15T08:43:43;96368.78;;;7.57;50.64
85473;BME280;75874;41.386;22.136;2024-02-15T08:46:09;96368.78;;;7.57;50.72
85473;BME280;75874;41.386;22.136;2024-02-15T08:48:35;96396.81;;;7.77;49.88
85473;BME280;75874;41.386;22.136;2024-02-15T08:51:01;96375.38;;;7.79;50.52
85473;BME280;75874;41.386;22.136;2024-02-15T08:56:37;96373.38;;;7.99;49.90
85473;BME280;75874;41.386;22.136;2024-02-15T08:59:03;96388.63;;;7.79;49.73
85473;BME280;75874;41.386;22.136;2024-02-15T09:01:28;96386.47;;;7.94;49.84
85473;BME280;75874;41.386;22.136;2024-02-15T09:03:56;96379.53;;;8.18;50.83
85473;BME280;75874;41.386;22.136;2024-02-15T09:06:21;96386.50;;;8.12;48.60
85473;BME280;75874;41.386;22.136;2024-02-15T09:08:48;96376.63;;;8.01;49.06
85473;BME280;75874;41.386;22.136;2024-02-15T09:11:13;96376.72;;;8.13;50.15
85473;BME280;75874;41.386;22.136;2024-02-15T09:13:39;96379.75;;;8.16;49.54
85473;BME280;75874;41.386;22.136;2024-02-15T09:16:06;96366.22;;;8.24;49.10
85473;BME280;75874;41.386;22.136;2024-02-15T09:18:31;96378.69;;;8.48;48.70
85473;BME280;75874;41.386;22.136;2024-02-15T09:20:58;96370.13;;;9.00;48.75
85473;BME280;75874;41.386;22.136;2024-02-15T09:23:24;96365.63;;;9.49;47.54
85473;BME280;75874;41.386;22.136;2024-02-15T09:25:50;96355.75;;;9.19;46.44
85473;BME280;75874;41.386;22.136;2024-02-15T09:28:20;96357.50;;;9.43;46.16
85473;BME280;75874;41.386;22.136;2024-02-15T09:30:49;96342.50;;;9.61;44.51
85473;BME280;75874;41.386;22.136;2024-02-15T09:33:19;96337.19;;;10.13;44.68
85473;BME280;75874;41.386;22.136;2024-02-15T09:36:04;96342.75;;;10.23;43.79
85473;BME280;75874;41.386;22.136;2024-02-15T09:38:29;96347.19;;;10.41;43.92
85473;BME280;75874;41.386;22.136;2024-02-15T09:40:55;96329.66;;;10.10;44.81
85473;BME280;75874;41.386;22.136;2024-02-15T09:43:21;96342.00;;;9.93;44.09
85473;BME280;75874;41.386;22.136;2024-02-15T09:45:50;96336.38;;;10.24;45.76
85473;BME280;75874;41.386;22.136;2024-02-15T09:48:17;96348.56;;;10.55;42.74
85473;BME280;75874;41.386;22.136;2024-02-15T09:50:45;96316.88;;;10.01;42.89
85473;BME280;75874;41.386;22.136;2024-02-15T09:53:14;96310.97;;;9.46;44.78
85473;BME280;75874;41.386;22.136;2024-02-15T09:55:40;96339.19;;;10.41;43.75
85473;BME280;75874;41.386;22.136;2024-02-15T09:58:08;96321.50;;;12.31;38.92
85473;BME280;75874;41.386;22.136;2024-02-15T10:00:35;96323.56;;;14.75;33.70
85473;BME280;75874;41.386;22.136;2024-02-15T10:03:02;96306.53;;;13.12;35.69
85473;BME280;75874;41.386;22.136;2024-02-15T10:05:31;96300.94;;;13.61;35.20
85473;BME280;75874;41.386;22.136;2024-02-15T10:07:57;96307.06;;;15.85;32.64
85473;BME280;75874;41.386;22.136;2024-02-15T10:10:27;96295.22;;;14.94;33.49
85473;BME280;75874;41.386;22.136;2024-02-15T10:12:54;96293.59;;;16.60;30.08
85473;BME280;75874;41.386;22.136;2024-02-15T10:15:39;96297.94;;;16.66;29.34
85473;BME280;75874;41.386;22.136;2024-02-15T10:18:10;96311.41;;;16.61;29.11
85473;BME280;75874;41.386;22.136;2024-02-15T10:20:38;96298.19;;;18.26;27.42
85473;BME280;75874;41.386;22.136;2024-02-15T10:25:35;96291.84;;;20.38;25.43
85473;BME280;75874;41.386;22.136;2024-02-15T10:28:08;96287.09;;;16.81;28.73
85473;BME280;75874;41.386;22.136;2024-02-15T10:30:40;96278.53;;;16.24;30.60
85473;BME280;75874;41.386;22.136;2024-02-15T10:33:19;96271.69;;;17.99;28.23
85473;BME280;75874;41.386;22.136;2024-02-15T10:35:46;96299.63;;;19.04;25.86
85473;BME280;75874;41.386;22.136;2024-02-15T10:38:12;96281.25;;;19.67;25.14
85473;BME280;75874;41.386;22.136;2024-02-15T10:40:40;96280.31;;;18.01;28.66
85473;BME280;75874;41.386;22.136;2024-02-15T10:43:10;96276.28;;;19.13;25.37
85473;BME280;75874;41.386;22.136;2024-02-15T10:45:39;96278.88;;;18.71;26.73
85473;BME280;75874;41.386;22.136;2024-02-15T10:48:12;96286.59;;;19.53;25.71
85473;BME280;75874;41.386;22.136;2024-02-15T10:50:42;96265.59;;;21.11;22.16
85473;BME280;75874;41.386;22.136;2024-02-15T10:53:26;96253.19;;;22.39;20.79
85473;BME280;75874;41.386;22.136;2024-02-15T10:56:09;96244.16;;;22.74;21.14
85473;BME280;75874;41.386;22.136;2024-02-15T10:58:50;96270.69;;;20.40;23.88
85473;BME280;75874;41.386;22.136;2024-02-15T11:01:21;96254.19;;;22.21;21.61
85473;BME280;75874;41.386;22.136;2024-02-15T11:03:52;96246.19;;;21.67;21.75
85473;BME280;75874;41.386;22.136;2024-02-15T11:06:24;96239.63;;;21.32;22.22
85473;BME280;75874;41.386;22.136;2024-02-15T11:08:51;96250.31;;;21.01;22.41
85473;BME280;75874;41.386;22.136;2024-02-15T11:11:18;96247.56;;;21.42;21.69
85473;BME280;75874;41.386;22.136;2024-02-15T11:13:46;96254.00;;;22.39;20.69
85473;BME280;75874;41.386;22.136;2024-02-15T11:16:39;96249.63;;;18.78;24.94
85473;BME280;75874;41.386;22.136;2024-02-15T11:19:09;96239.28;;;22.40;21.94
85473;BME280;75874;41.386;22.136;2024-02-15T11:21:55;96235.19;;;22.73;20.12
85473;BME280;75874;41.386;22.136;2024-02-15T11:24:31;96234.16;;;23.00;21.13
85473;BME280;75874;41.386;22.136;2024-02-15T11:27:05;96224.75;;;25.31;18.97
85473;BME280;75874;41.386;22.136;2024-02-15T11:29:51;96226.56;;;25.56;18.36
85473;BME280;75874;41.386;22.136;2024-02-15T11:32:43;96234.38;;;24.45;19.06
85473;BME280;75874;41.386;22.136;2024-02-15T11:35:13;96232.34;;;20.33;23.15
85473;BME280;75874;41.386;22.136;2024-02-15T11:43:47;96179.31;;;24.43;18.86
85473;BME280;75874;41.386;22.136;2024-02-15T11:46:27;96233.44;;;26.12;18.88
85473;BME280;75874;41.386;22.136;2024-02-15T11:48:57;96220.44;;;27.95;16.29
85473;BME280;75874;41.386;22.136;2024-02-15T11:51:29;96233.47;;;28.65;15.25
85473;BME280;75874;41.386;22.136;2024-02-15T11:54:08;96221.13;;;26.51;16.55
85473;BME280;75874;41.386;22.136;2024-02-15T11:56:58;96228.50;;;28.43;15.14
85473;BME280;75874;41.386;22.136;2024-02-15T11:59:42;96221.53;;;28.06;15.23
85473;BME280;75874;41.386;22.136;2024-02-15T12:02:26;96225.47;;;28.32;15.69
85473;BME280;75874;41.386;22.136;2024-02-15T12:05:11;96213.66;;;28.04;15.53
85473;BME280;75874;41.386;22.136;2024-02-15T12:07:55;96198.22;;;27.24;16.19
85473;BME280;75874;41.386;22.136;2024-02-15T12:10:39;96218.56;;;28.38;15.73
85473;BME280;75874;41.386;22.136;2024-02-15T12:13:23;96214.84;;;29.33;13.29
85473;BME280;75874;41.386;22.136;2024-02-15T12:16:07;96203.25;;;26.53;15.73
85473;BME280;75874;41.386;22.136;2024-02-15T12:18:51;96204.47;;;28.52;14.25
85473;BME280;75874;41.386;22.136;2024-02-15T12:21:25;96205.25;;;30.50;12.81
85473;BME280;75874;41.386;22.136;2024-02-15T12:23:53;96211.03;;;33.02;11.26
85473;BME280;75874;41.386;22.136;2024-02-15T12:26:20;96233.06;;;34.47;11.94
85473;BME280;75874;41.386;22.136;2024-02-15T12:28:53;96210.50;;;30.96;13.63
85473;BME280;75874;41.386;22.136;2024-02-15T12:31:24;96231.13;;;28.51;14.69
85473;BME280;75874;41.386;22.136;2024-02-15T12:34:08;96232.06;;;30.53;14.17
85473;BME280;75874;41.386;22.136;2024-02-15T12:36:34;96220.69;;;29.31;13.54
85473;BME280;75874;41.386;22.136;2024-02-15T12:39:05;96218.75;;;30.96;13.72
85473;BME280;75874;41.386;22.136;2024-02-15T12:41:41;96201.94;;;27.80;15.13
85473;BME280;75874;41.386;22.136;2024-02-15T12:44:07;96221.94;;;27.92;14.74
85473;BME280;75874;41.386;22.136;2024-02-15T12:46:34;96233.09;;;31.50;12.71
85473;BME280;75874;41.386;22.136;2024-02-15T12:49:27;96227.09;;;30.04;13.14
85473;BME280;75874;41.386;22.136;2024-02-15T12:51:54;96219.16;;;30.18;13.50
85473;BME280;75874;41.386;22.136;2024-02-15T12:54:39;96233.47;;;27.13;15.44
85473;BME280;75874;41.386;22.136;2024-02-15T12:57:07;96250.22;;;29.65;14.10
85473;BME280;75874;41.386;22.136;2024-02-15T12:59:35;96244.63;;;31.33;12.74
85473;BME280;75874;41.386;22.136;2024-02-15T13:05:27;96228.47;;;31.32;13.38
85473;BME280;75874;41.386;22.136;2024-02-15T13:07:54;96236.63;;;33.36;11.61
85473;BME280;75874;41.386;22.136;2024-02-15T13:10:31;96250.00;;;35.98;11.11
85473;BME280;75874;41.386;22.136;2024-02-15T13:12:58;96264.44;;;36.93;10.03
85473;BME280;75874;41.386;22.136;2024-02-15T13:15:24;96250.81;;;35.74;9.70
85473;BME280;75874;41.386;22.136;2024-02-15T13:17:58;96253.16;;;31.47;11.74
85473;BME280;75874;41.386;22.136;2024-02-15T13:20:24;96245.44;;;33.04;11.76
85473;BME280;75874;41.386;22.136;2024-02-15T13:23:05;96236.28;;;31.07;12.74
85473;BME280;75874;41.386;22.136;2024-02-15T13:25:38;96235.69;;;30.57;14.15
85473;BME280;75874;41.386;22.136;2024-02-15T13:28:05;96236.56;;;32.26;11.94
85473;BME280;75874;41.386;22.136;2024-02-15T13:30:32;96234.44;;;33.52;12.10
85473;BME280;75874;41.386;22.136;2024-02-15T13:32:57;96228.69;;;32.57;12.47
85473;BME280;75874;41.386;22.136;2024-02-15T13:35:23;96219.75;;;29.58;13.55
85473;BME280;75874;41.386;22.136;2024-02-15T13:37:53;96222.06;;;31.50;12.86
85473;BME280;75874;41.386;22.136;2024-02-15T13:40:22;96219.94;;;29.50;13.95